Time;durP1;ratioP1;P1;durP2;ratioP2;P2;SDS_P1;SDS_P2;PMS_P1;PMS_P2;Temp;Humidity;BMP_temperature;BMP_pressure;BME280_temperature;BME280_humidity;BME280_pressure;Samples;Min_cycle;Max_cycle;Signal;HPM_P1;HPM_P2
2023/01/11 00:01:37;;;;;;;;;;;;;;;16.39;73.14;100523.94;7400313;19;1591;-78
2023/01/11 00:04:05;;;;;;;;;;;;;;;16.37;73.15;100535.72;7401405;19;1488;-78
2023/01/11 00:06:33;;;;;;;;;;;;;;;16.37;73.40;100527.72;7402563;19;1064;-78
2023/01/11 00:09:02;;;;;;;;;;;;;;;16.30;73.34;100525.56;7398749;19;1838;-78
2023/01/11 00:11:30;;;;;;;;;;;;;;;16.30;73.22;100530.88;7400635;19;1607;-78
2023/01/11 00:13:58;;;;;;;;;;;;;;;16.26;73.42;100534.78;7398130;19;1555;-78
2023/01/11 00:16:29;;;;;;;;;;;;;;;16.23;73.49;100524.34;7400360;19;1434;-78
2023/01/11 00:18:57;;;;;;;;;;;;;;;16.23;73.57;100539.50;7400915;19;1435;-78
2023/01/11 00:21:25;;;;;;;;;;;;;;;16.25;73.27;100522.41;7401398;19;1665;-78
2023/01/11 00:23:54;;;;;;;;;;;;;;;16.19;73.65;100519.38;7398821;19;1431;-78
2023/01/11 00:26:22;;;;;;;;;;;;;;;16.16;73.26;100552.50;7400640;19;1565;-77
2023/01/11 00:28:51;;;;;;;;;;;;;;;16.18;73.47;100545.22;7399209;19;1855;-77
2023/01/11 00:31:19;;;;;;;;;;;;;;;16.18;73.59;100539.88;7401218;19;1554;-77
2023/01/11 00:33:50;;;;;;;;;;;;;;;16.15;73.69;100556.13;7398546;19;1379;-78
2023/01/11 00:36:18;;;;;;;;;;;;;;;16.17;73.38;100559.50;7401513;19;1451;-78
2023/01/11 00:38:50;;;;;;;;;;;;;;;16.17;73.40;100583.53;7399819;19;1333;-78
2023/01/11 00:49:23;;;;;;;;;;;;;;;16.07;73.54;100587.88;7399346;19;1843;-78
2023/01/11 00:51:52;;;;;;;;;;;;;;;16.04;73.43;100585.47;7400399;19;1464;-78
2023/01/11 00:54:20;;;;;;;;;;;;;;;16.03;73.68;100587.28;7397821;19;1386;-78
2023/01/11 00:56:48;;;;;;;;;;;;;;;16.00;73.68;100586.69;7401030;19;1424;-78
2023/01/11 00:59:17;;;;;;;;;;;;;;;15.98;73.31;100580.63;7397760;19;1737;-78
2023/01/11 01:01:45;;;;;;;;;;;;;;;16.01;73.56;100588.38;7403333;19;1602;-78
2023/01/11 01:04:13;;;;;;;;;;;;;;;15.97;73.33;100585.09;7402559;19;1412;-78
2023/01/11 01:06:44;;;;;;;;;;;;;;;15.95;73.41;100594.19;7407086;19;1304;-78
2023/01/11 01:09:12;;;;;;;;;;;;;;;15.94;73.38;100587.19;7404631;19;1844;-78
2023/01/11 01:11:40;;;;;;;;;;;;;;;15.90;73.46;100576.72;7405356;19;1539;-78
2023/01/11 01:16:51;;;;;;;;;;;;;;;15.90;73.92;100566.06;7406412;19;1388;-78
2023/01/11 01:19:20;;;;;;;;;;;;;;;15.87;73.64;100565.44;7406223;19;1678;-78
2023/01/11 01:21:51;;;;;;;;;;;;;;;15.85;73.46;100567.38;7407113;19;1479;-78
2023/01/11 01:24:19;;;;;;;;;;;;;;;15.87;73.38;100568.13;7406340;19;1361;-78
2023/01/11 01:26:47;;;;;;;;;;;;;;;15.86;73.65;100572.63;7407541;19;1313;-77
2023/01/11 01:29:16;;;;;;;;;;;;;;;15.85;73.56;100568.22;7402527;19;1857;-78
2023/01/11 01:31:44;;;;;;;;;;;;;;;15.85;73.23;100556.72;7405265;19;1558;-78
2023/01/11 01:34:13;;;;;;;;;;;;;;;15.85;73.36;100573.56;7404934;19;1611;-78
2023/01/11 01:36:41;;;;;;;;;;;;;;;15.88;73.24;100578.66;7407285;19;1582;-78
2023/01/11 01:39:13;;;;;;;;;;;;;;;15.88;73.63;100576.00;7405390;19;1556;-78
2023/01/11 01:41:41;;;;;;;;;;;;;;;15.88;73.35;100586.66;7406854;19;1016;-78
2023/01/11 01:44:24;;;;;;;;;;;;;;;15.87;73.42;100587.63;7403876;19;1475;-78
2023/01/11 01:46:53;;;;;;;;;;;;;;;15.85;73.31;100578.91;7404015;19;1357;-77
2023/01/11 01:49:21;;;;;;;;;;;;;;;15.84;73.54;100568.38;7404781;19;1906;-78
2023/01/11 01:51:51;;;;;;;;;;;;;;;15.82;73.26;100568.50;7405445;19;1416;-78
2023/01/11 01:54:27;;;;;;;;;;;;;;;15.81;73.50;100585.44;7406016;19;1361;-78
2023/01/11 01:56:58;;;;;;;;;;;;;;;15.78;73.41;100577.69;7406863;19;1345;-78
2023/01/11 01:59:28;;;;;;;;;;;;;;;15.78;73.66;100583.03;7402238;19;1618;-78
2023/01/11 02:01:56;;;;;;;;;;;;;;;15.76;73.44;100574.31;7403943;19;1587;-78
2023/01/11 02:04:27;;;;;;;;;;;;;;;15.79;73.46;100583.88;7404731;19;1475;-78
2023/01/11 02:06:59;;;;;;;;;;;;;;;15.73;73.61;100574.53;7405045;19;1562;-78
2023/01/11 02:09:34;;;;;;;;;;;;;;;15.74;73.23;100575.38;7403898;19;1859;-78
2023/01/11 02:12:03;;;;;;;;;;;;;;;15.73;73.56;100569.19;7406051;19;1359;-78
2023/01/11 02:14:32;;;;;;;;;;;;;;;15.73;73.58;100569.19;7404235;19;1404;-78
2023/01/11 02:17:01;;;;;;;;;;;;;;;15.73;73.54;100579.84;7404371;19;1597;-78
2023/01/11 02:19:37;;;;;;;;;;;;;;;15.70;73.83;100596.91;7404393;19;1602;-77
2023/01/11 02:22:21;;;;;;;;;;;;;;;15.69;73.72;100591.69;7403368;19;1385;-78
2023/01/11 02:25:03;;;;;;;;;;;;;;;15.70;73.54;100598.75;7403799;19;1639;-77
2023/01/11 02:27:36;;;;;;;;;;;;;;;15.68;73.29;100590.00;7404917;19;1439;-78
2023/01/11 02:30:17;;;;;;;;;;;;;;;15.68;73.83;100592.69;7401624;19;1853;-78
2023/01/11 02:32:50;;;;;;;;;;;;;;;15.71;73.35;100589.75;7403379;19;1732;-78
2023/01/11 02:35:23;;;;;;;;;;;;;;;15.70;73.73;100590.75;7404610;19;1393;-77
2023/01/11 02:37:59;;;;;;;;;;;;;;;15.71;73.43;100587.09;7403018;19;1408;-78
2023/01/11 02:40:31;;;;;;;;;;;;;;;15.72;73.66;100594.13;7404398;19;1349;-78
2023/01/11 02:45:51;;;;;;;;;;;;;;;15.88;75.33;100588.50;7404937;19;1492;-78
2023/01/11 02:48:24;;;;;;;;;;;;;;;15.87;74.75;100600.97;7404457;19;1849;-78
2023/01/11 02:50:56;;;;;;;;;;;;;;;16.38;73.01;100606.81;7402281;19;1733;-78
2023/01/11 02:53:27;;;;;;;;;;;;;;;17.46;69.30;100573.00;7403746;19;1813;-77
2023/01/11 02:55:58;;;;;;;;;;;;;;;18.27;66.82;100586.56;7405002;19;1649;-78
2023/01/11 02:58:28;;;;;;;;;;;;;;;18.51;65.98;100596.09;7403743;19;1440;-78
2023/01/11 03:01:00;;;;;;;;;;;;;;;18.93;64.45;100549.53;7404295;19;1350;-78
2023/01/11 03:03:29;;;;;;;;;;;;;;;19.33;63.37;100578.84;7402214;19;1502;-78
2023/01/11 03:05:59;;;;;;;;;;;;;;;19.42;63.13;100575.34;7404497;19;1127;-78
2023/01/11 03:08:36;;;;;;;;;;;;;;;19.39;63.03;100580.97;7402875;19;1863;-78
2023/01/11 03:11:06;;;;;;;;;;;;;;;19.36;63.54;100577.72;7403982;19;1700;-78
2023/01/11 03:13:38;;;;;;;;;;;;;;;19.39;63.44;100580.97;7402098;19;1578;-78
2023/01/11 03:16:18;;;;;;;;;;;;;;;19.33;63.61;100575.34;7402777;19;1595;-78
2023/01/11 03:18:50;;;;;;;;;;;;;;;19.49;63.25;100562.19;7401140;19;1524;-78
2023/01/11 03:21:24;;;;;;;;;;;;;;;19.54;62.90;100556.41;7402120;19;1484;-78
2023/01/11 03:23:57;;;;;;;;;;;;;;;19.59;62.74;100570.22;7401907;19;1357;-78
2023/01/11 03:26:32;;;;;;;;;;;;;;;19.62;62.48;100572.63;7403706;19;1112;-78
2023/01/11 03:29:07;;;;;;;;;;;;;;;19.61;62.69;100587.84;7402269;19;1855;-78
2023/01/11 03:31:41;;;;;;;;;;;;;;;19.64;62.57;100601.00;7400496;19;1393;-78
2023/01/11 03:34:13;;;;;;;;;;;;;;;19.84;62.21;100620.59;7401590;19;1662;-78
2023/01/11 03:36:43;;;;;;;;;;;;;;;19.74;62.08;100627.84;7402741;19;1685;-78
2023/01/11 03:39:18;;;;;;;;;;;;;;;19.77;62.18;100621.31;7401803;19;1337;-78
2023/01/11 03:41:47;;;;;;;;;;;;;;;20.00;61.79;100628.06;7403715;19;1481;-78
2023/01/11 03:44:16;;;;;;;;;;;;;;;19.95;61.79;100629.47;7399311;19;1585;-78
2023/01/11 03:46:49;;;;;;;;;;;;;;;19.74;62.23;100633.22;7401318;19;1421;-78
2023/01/11 03:49:21;;;;;;;;;;;;;;;19.57;62.61;100632.03;7401856;19;1845;-78
2023/01/11 03:51:50;;;;;;;;;;;;;;;19.79;61.95;100613.97;7402268;19;1520;-78
2023/01/11 03:54:21;;;;;;;;;;;;;;;19.73;62.31;100615.41;7401969;19;1424;-78
2023/01/11 03:56:53;;;;;;;;;;;;;;;19.78;62.13;100615.00;7402640;19;1353;-78
2023/01/11 03:59:22;;;;;;;;;;;;;;;19.72;62.22;100637.88;7401415;19;1591;-78
2023/01/11 04:01:54;;;;;;;;;;;;;;;19.64;62.49;100643.06;7400043;19;1506;-78
2023/01/11 04:04:22;;;;;;;;;;;;;;;19.57;62.63;100634.72;7400937;19;1599;-78
2023/01/11 04:06:50;;;;;;;;;;;;;;;19.62;62.42;100650.41;7402132;19;1298;-78
2023/01/11 04:09:18;;;;;;;;;;;;;;;19.59;62.42;100646.16;7400459;19;1845;-78
2023/01/11 04:11:47;;;;;;;;;;;;;;;19.62;62.60;100634.31;7402236;19;1369;-78
2023/01/11 04:14:15;;;;;;;;;;;;;;;19.58;62.44;100649.00;7400835;19;1567;-78
2023/01/11 04:16:43;;;;;;;;;;;;;;;19.68;62.43;100644.47;7400330;19;1635;-78
2023/01/11 04:19:14;;;;;;;;;;;;;;;19.63;62.72;100649.41;7400410;19;1467;-78
2023/01/11 04:21:42;;;;;;;;;;;;;;;19.67;62.27;100650.81;7399356;19;1668;-78
2023/01/11 04:24:12;;;;;;;;;;;;;;;19.67;62.33;100664.22;7402279;19;1524;-78
2023/01/11 04:26:40;;;;;;;;;;;;;;;19.71;62.32;100656.75;7399928;19;1582;-78
2023/01/11 04:29:08;;;;;;;;;;;;;;;19.74;62.10;100676.13;7398747;19;1856;-78
2023/01/11 04:31:37;;;;;;;;;;;;;;;19.74;62.00;100661.88;7399531;19;1602;-78
2023/01/11 04:34:05;;;;;;;;;;;;;;;19.60;62.39;100677.38;7399508;19;1571;-78
2023/01/11 04:36:36;;;;;;;;;;;;;;;19.72;61.95;100675.44;7406909;19;1404;-78
2023/01/11 04:39:05;;;;;;;;;;;;;;;19.80;61.87;100685.44;7408297;19;1586;-78
2023/01/11 04:44:14;;;;;;;;;;;;;;;19.75;61.95;100642.09;7407622;19;1599;-78
2023/01/11 04:46:42;;;;;;;;;;;;;;;19.85;61.55;100651.81;7406923;19;1599;-78
2023/01/11 04:49:10;;;;;;;;;;;;;;;19.77;61.92;100642.78;7407522;19;1849;-78
2023/01/11 04:51:41;;;;;;;;;;;;;;;19.76;62.18;100668.78;7405941;19;1491;-78
2023/01/11 04:54:09;;;;;;;;;;;;;;;19.80;61.81;100664.81;7408512;19;1673;-78
2023/01/11 04:56:38;;;;;;;;;;;;;;;19.74;62.11;100668.09;7408674;19;1436;-78
2023/01/11 04:59:06;;;;;;;;;;;;;;;19.80;61.95;100675.56;7404978;19;1642;-78
2023/01/11 05:01:34;;;;;;;;;;;;;;;19.79;61.81;100671.16;7403630;19;1519;-78
2023/01/11 05:04:02;;;;;;;;;;;;;;;19.84;61.55;100671.59;7407443;19;1376;-78
2023/01/11 05:06:31;;;;;;;;;;;;;;;19.93;61.45;100695.88;7407717;19;1678;-78
2023/01/11 05:09:01;;;;;;;;;;;;;;;19.93;61.56;100685.97;7407270;19;1852;-78
2023/01/11 05:11:30;;;;;;;;;;;;;;;19.84;61.62;100676.13;7408443;19;1373;-78
2023/01/11 05:13:58;;;;;;;;;;;;;;;19.86;61.51;100683.03;7405893;19;1409;-78
2023/01/11 05:16:27;;;;;;;;;;;;;;;19.90;61.59;100694.34;7407545;19;1378;-78
2023/01/11 05:18:56;;;;;;;;;;;;;;;19.89;61.42;100678.38;7407446;19;1450;-78
2023/01/11 05:21:26;;;;;;;;;;;;;;;19.89;61.45;100699.84;7406631;19;1479;-78
2023/01/11 05:23:54;;;;;;;;;;;;;;;19.88;61.57;100698.16;7407726;19;1615;-78
2023/01/11 05:26:26;;;;;;;;;;;;;;;19.96;61.49;100690.22;7408090;19;1328;-78
2023/01/11 05:28:55;;;;;;;;;;;;;;;19.92;61.37;100707.63;7404575;19;1862;-78
2023/01/11 05:31:24;;;;;;;;;;;;;;;19.90;61.22;100702.38;7407388;19;1524;-78
2023/01/11 05:33:52;;;;;;;;;;;;;;;19.91;61.39;100720.16;7404135;19;1688;-78
2023/01/11 05:36:21;;;;;;;;;;;;;;;20.00;61.24;100708.59;7406800;19;1603;-78
2023/01/11 05:38:50;;;;;;;;;;;;;;;19.92;61.30;100704.94;7407126;19;1682;-78
2023/01/11 05:41:19;;;;;;;;;;;;;;;19.96;61.25;100706.34;7407141;19;1423;-78
2023/01/11 05:46:41;;;;;;;;;;;;;;;20.02;60.86;100717.34;7397930;19;1534;-78
2023/01/11 05:49:12;;;;;;;;;;;;;;;20.01;61.27;100720.16;7405846;19;1841;-78
2023/01/11 05:51:40;;;;;;;;;;;;;;;20.02;61.19;100743.34;7406667;19;1491;-78
2023/01/11 05:54:11;;;;;;;;;;;;;;;19.97;61.44;100716.06;7403636;19;1484;-78
2023/01/11 05:56:39;;;;;;;;;;;;;;;20.01;60.85;100728.22;7407251;19;1020;-78
2023/01/11 05:59:10;;;;;;;;;;;;;;;19.97;61.04;100738.38;7402961;19;1547;-78
2023/01/11 06:01:38;;;;;;;;;;;;;;;20.05;61.04;100738.53;7403543;19;1492;-78
2023/01/11 06:04:07;;;;;;;;;;;;;;;20.04;60.83;100749.41;7406746;19;1563;-78
2023/01/11 06:06:35;;;;;;;;;;;;;;;20.06;60.68;100742.91;7402514;19;1441;-78
2023/01/11 06:09:04;;;;;;;;;;;;;;;19.94;60.92;100744.06;7405083;19;1843;-78
2023/01/11 06:11:32;;;;;;;;;;;;;;;19.89;61.24;100753.50;7406534;19;1083;-78
2023/01/11 06:14:00;;;;;;;;;;;;;;;19.74;61.83;100748.56;7402287;19;1697;-78
2023/01/11 06:16:31;;;;;;;;;;;;;;;19.74;61.72;100763.84;7405770;19;1404;-78
2023/01/11 06:18:59;;;;;;;;;;;;;;;19.71;61.70;100740.78;7405075;19;1334;-78
2023/01/11 06:21:27;;;;;;;;;;;;;;;19.66;61.87;100764.50;7405413;19;1634;-78
2023/01/11 06:23:56;;;;;;;;;;;;;;;19.55;62.31;100776.19;7404413;19;1412;-78
2023/01/11 06:26:24;;;;;;;;;;;;;;;19.55;62.03;100762.78;7405741;19;1087;-78
2023/01/11 06:28:52;;;;;;;;;;;;;;;19.76;61.36;100769.91;7402691;19;1699;-78
2023/01/11 06:31:21;;;;;;;;;;;;;;;19.85;61.17;100766.34;7402542;19;1837;-78
2023/01/11 06:33:52;;;;;;;;;;;;;;;19.94;61.07;100767.38;7405210;19;1658;-78
2023/01/11 06:36:20;;;;;;;;;;;;;;;19.94;60.98;100775.41;7403657;19;1516;-78
2023/01/11 06:38:48;;;;;;;;;;;;;;;20.00;60.96;100751.53;7405141;19;1516;-78
2023/01/11 06:41:16;;;;;;;;;;;;;;;20.10;60.69;100778.38;7405417;19;1067;-78
2023/01/11 06:43:45;;;;;;;;;;;;;;;20.10;60.55;100783.75;7400686;19;1200;-78
2023/01/11 06:46:14;;;;;;;;;;;;;;;20.12;60.38;100797.88;7403032;19;1565;-78
2023/01/11 06:48:43;;;;;;;;;;;;;;;20.10;60.87;100788.28;7404742;19;1556;-78
2023/01/11 06:51:14;;;;;;;;;;;;;;;20.04;60.86;100778.94;7403835;19;1851;-78
2023/01/11 06:53:44;;;;;;;;;;;;;;;20.02;60.59;100788.97;7404384;19;1658;-78
2023/01/11 06:56:14;;;;;;;;;;;;;;;19.95;61.19;100795.88;7404009;19;1555;-78
2023/01/11 06:58:42;;;;;;;;;;;;;;;19.73;61.73;100797.00;7398097;19;1576;-78
2023/01/11 07:01:11;;;;;;;;;;;;;;;19.68;61.68;100790.19;7403172;19;1396;-78
2023/01/11 07:03:40;;;;;;;;;;;;;;;19.56;62.23;100817.28;7402827;19;1595;-78
2023/01/11 07:06:08;;;;;;;;;;;;;;;19.59;62.05;100817.84;7405253;19;1511;-78
2023/01/11 07:08:41;;;;;;;;;;;;;;;19.60;62.12;100840.16;7404679;19;1564;-77
2023/01/11 07:11:10;;;;;;;;;;;;;;;19.12;63.03;100827.44;7399509;19;1853;-80
2023/01/11 07:13:38;;;;;;;;;;;;;;;18.62;64.61;100834.34;7331806;19;14176;-83
2023/01/11 07:16:06;;;;;;;;;;;;;;;18.25;66.03;100824.06;7394325;19;1486;-83
2023/01/11 07:18:36;;;;;;;;;;;;;;;18.02;66.63;100847.41;7393139;19;1332;-80
2023/01/11 07:21:04;;;;;;;;;;;;;;;17.85;67.01;100862.19;7398272;19;1244;-80
2023/01/11 07:23:32;;;;;;;;;;;;;;;17.78;67.56;100860.09;7398531;19;1332;-80
2023/01/11 07:26:03;;;;;;;;;;;;;;;17.73;67.70;100873.00;7395242;19;1452;-78
2023/01/11 07:28:31;;;;;;;;;;;;;;;17.65;67.90;100873.63;7395682;19;1335;-77
2023/01/11 07:31:00;;;;;;;;;;;;;;;17.62;67.65;100863.16;7394072;19;1822;-78
2023/01/11 07:33:28;;;;;;;;;;;;;;;17.58;68.09;100872.41;7399360;19;1590;-78
2023/01/11 07:35:59;;;;;;;;;;;;;;;17.51;68.67;100872.06;7401705;19;1071;-78
2023/01/11 07:38:28;;;;;;;;;;;;;;;17.46;69.14;100872.41;7403423;19;1554;-78
2023/01/11 07:40:56;;;;;;;;;;;;;;;17.42;71.72;100870.97;7403367;19;1666;-77
2023/01/11 07:43:24;;;;;;;;;;;;;;;17.38;71.47;100872.19;7398840;19;1432;-77
2023/01/11 07:45:54;;;;;;;;;;;;;;;18.01;69.88;100877.81;7337284;19;14178;-79
2023/01/11 07:48:24;;;;;;;;;;;;;;;19.33;66.24;100892.56;7407418;19;1513;-79
2023/01/11 07:50:54;;;;;;;;;;;;;;;19.57;65.39;100896.75;7402402;19;1847;-77
2023/01/11 07:53:24;;;;;;;;;;;;;;;19.62;65.56;100902.59;7401120;19;1371;-77
2023/01/11 07:55:52;;;;;;;;;;;;;;;19.65;65.80;100897.75;7403215;19;1471;-77
2023/01/11 07:58:20;;;;;;;;;;;;;;;19.81;65.03;100891.91;7399523;19;1426;-77
2023/01/11 08:00:51;;;;;;;;;;;;;;;19.74;65.43;100896.16;7400652;19;1335;-78
2023/01/11 08:03:20;;;;;;;;;;;;;;;19.57;66.10;100902.13;7399466;19;1511;-77
2023/01/11 08:05:51;;;;;;;;;;;;;;;19.56;65.89;100903.13;7401252;19;1302;-77
2023/01/11 08:08:19;;;;;;;;;;;;;;;19.53;65.69;100919.47;7400321;19;1433;-78
2023/01/11 08:14:37;;;;;;;;;;;;;;;19.55;65.87;100907.63;7412939;19;1847;-78
2023/01/11 08:16:19;;;;;;;;;;;;;;;19.79;65.18;100926.09;7416364;19;1451;-78
2023/01/11 08:18:47;;;;;;;;;;;;;;;19.90;64.81;100921.63;7406220;19;1340;-78
2023/01/11 08:21:16;;;;;;;;;;;;;;;19.64;66.21;100940.84;7410809;19;1977;-77
2023/01/11 08:23:44;;;;;;;;;;;;;;;18.96;67.64;100924.41;7412343;19;1316;-77
2023/01/11 08:26:15;;;;;;;;;;;;;;;18.41;69.41;100936.09;7408783;19;1375;-78
2023/01/11 08:28:44;;;;;;;;;;;;;;;18.12;70.25;100927.78;7411648;19;1351;-78
2023/01/11 08:31:12;;;;;;;;;;;;;;;17.88;70.78;100936.81;7411433;19;1855;-78
2023/01/11 08:33:43;;;;;;;;;;;;;;;17.75;70.89;100962.00;7412303;19;1331;-77
2023/01/11 08:36:13;;;;;;;;;;;;;;;17.66;71.25;100943.00;7413148;19;1327;-78
2023/01/11 08:38:41;;;;;;;;;;;;;;;17.57;71.73;100937.56;7411253;19;1508;-78
2023/01/11 08:41:09;;;;;;;;;;;;;;;17.54;71.76;100949.34;7413701;19;1025;-78
2023/01/11 08:43:38;;;;;;;;;;;;;;;17.52;73.30;100951.28;7410857;19;1333;-78
2023/01/11 08:46:06;;;;;;;;;;;;;;;17.57;73.61;100958.97;7412507;19;1362;-78
2023/01/11 08:48:34;;;;;;;;;;;;;;;17.54;73.35;100944.00;7412793;19;1302;-78
2023/01/11 08:51:05;;;;;;;;;;;;;;;17.70;73.40;100955.16;7412180;19;1844;-78
2023/01/11 08:53:34;;;;;;;;;;;;;;;18.71;69.62;100957.78;7413118;19;1354;-79
2023/01/11 08:56:02;;;;;;;;;;;;;;;19.10;68.04;100947.34;7412718;19;1242;-78
2023/01/11 08:58:30;;;;;;;;;;;;;;;19.52;66.99;100937.41;7409840;19;1422;-78
2023/01/11 09:01:01;;;;;;;;;;;;;;;19.73;66.22;100939.22;7408905;19;1387;-78
2023/01/11 09:03:29;;;;;;;;;;;;;;;19.72;66.32;100950.94;7403812;19;1553;-78
2023/01/11 09:05:58;;;;;;;;;;;;;;;19.68;66.51;100956.53;7406230;19;1412;-79
2023/01/11 09:08:29;;;;;;;;;;;;;;;19.56;66.46;100964.81;7405152;19;1547;-78
2023/01/11 09:10:58;;;;;;;;;;;;;;;19.53;66.89;100970.44;7407390;19;1861;-78
2023/01/11 09:13:27;;;;;;;;;;;;;;;19.48;67.07;100970.84;7410960;19;1351;-78
2023/01/11 09:15:57;;;;;;;;;;;;;;;19.60;67.02;100968.94;7409784;19;1308;-78
2023/01/11 09:18:25;;;;;;;;;;;;;;;19.50;67.40;100973.38;7412055;19;1660;-78
2023/01/11 09:20:54;;;;;;;;;;;;;;;19.52;67.01;100976.78;7408319;19;1324;-78
2023/01/11 09:23:22;;;;;;;;;;;;;;;20.15;64.84;100980.13;7400469;19;1368;-78
2023/01/11 09:25:53;;;;;;;;;;;;;;;20.01;64.64;100970.63;7402323;19;1421;-78
2023/01/11 09:28:21;;;;;;;;;;;;;;;19.97;64.64;100973.75;7403989;19;1417;-78
2023/01/11 09:30:50;;;;;;;;;;;;;;;19.91;64.88;100979.66;7402058;19;1857;-78
2023/01/11 09:33:18;;;;;;;;;;;;;;;19.95;64.83;100987.28;7405074;19;1150;-79
2023/01/11 09:35:48;;;;;;;;;;;;;;;20.14;64.49;100977.63;7402761;19;1161;-79
2023/01/11 09:38:16;;;;;;;;;;;;;;;20.22;63.85;100978.63;7403841;19;1340;-78
2023/01/11 09:40:51;;;;;;;;;;;;;;;20.08;64.44;100976.31;7401340;19;1504;-78
2023/01/11 09:43:26;;;;;;;;;;;;;;;20.01;64.83;100991.28;7401687;19;1365;-78
2023/01/11 09:45:57;;;;;;;;;;;;;;;20.09;64.68;100986.06;7404295;19;1224;-78
2023/01/11 09:48:31;;;;;;;;;;;;;;;20.25;65.06;100991.78;7403251;19;1548;-78
2023/01/11 09:51:00;;;;;;;;;;;;;;;19.85;66.80;101000.69;7400154;19;1862;-79
2023/01/11 09:53:33;;;;;;;;;;;;;;;19.08;68.57;101006.47;7400778;19;1357;-78
2023/01/11 09:56:06;;;;;;;;;;;;;;;18.62;68.68;101013.81;7403533;19;1250;-78
2023/01/11 09:58:49;;;;;;;;;;;;;;;18.40;68.69;100968.34;7402724;19;1270;-78
2023/01/11 10:01:20;;;;;;;;;;;;;;;18.36;69.02;100994.50;7402133;19;1517;-78
2023/01/11 10:04:07;;;;;;;;;;;;;;;18.50;68.37;100990.69;7403800;19;1426;-78
2023/01/11 10:06:41;;;;;;;;;;;;;;;18.96;67.51;101002.97;7402776;19;1289;-78
2023/01/11 10:09:19;;;;;;;;;;;;;;;18.76;68.04;101001.06;7403666;19;1489;-78
2023/01/11 10:11:52;;;;;;;;;;;;;;;18.46;68.85;101008.88;7399290;19;1864;-78
2023/01/11 10:14:33;;;;;;;;;;;;;;;18.16;69.44;101004.16;7401199;19;1346;-79
2023/01/11 10:17:10;;;;;;;;;;;;;;;18.02;70.36;101013.31;7401483;19;1354;-78
2023/01/11 10:19:44;;;;;;;;;;;;;;;17.89;70.78;101001.91;7401746;19;1263;-78
2023/01/11 10:22:16;;;;;;;;;;;;;;;17.87;70.79;100999.34;7379899;19;1484;-78
2023/01/11 10:24:47;;;;;;;;;;;;;;;17.91;70.69;101021.34;7398453;19;1433;-78
2023/01/11 10:27:21;;;;;;;;;;;;;;;17.98;70.79;101011.00;7402144;19;1562;-76
2023/01/11 10:30:11;;;;;;;;;;;;;;;17.84;70.48;101015.63;7399466;19;1766;-79
2023/01/11 10:32:52;;;;;;;;;;;;;;;17.72;70.98;101003.19;7396829;19;1840;-77
2023/01/11 10:38:32;;;;;;;;;;;;;;;17.57;71.53;101023.16;7401158;19;1687;-77
2023/01/11 10:41:10;;;;;;;;;;;;;;;17.52;71.32;101006.59;7402765;19;1840;-77
2023/01/11 10:43:41;;;;;;;;;;;;;;;17.62;71.04;101003.06;7391943;19;1370;-78
2023/01/11 10:46:14;;;;;;;;;;;;;;;17.67;71.20;101013.41;7402854;19;1365;-78
2023/01/11 10:48:43;;;;;;;;;;;;;;;17.61;71.05;101008.56;7403764;19;1066;-78
2023/01/11 10:51:19;;;;;;;;;;;;;;;17.57;71.68;101007.09;7404131;19;1861;-78
2023/01/11 10:53:56;;;;;;;;;;;;;;;17.56;71.36;101011.56;7404503;19;1651;-78
2023/01/11 10:56:28;;;;;;;;;;;;;;;17.57;71.41;101004.44;7402812;19;1722;-78
2023/01/11 10:59:05;;;;;;;;;;;;;;;17.60;71.32;101020.22;7398276;19;1691;-78
2023/01/11 11:01:44;;;;;;;;;;;;;;;17.53;71.20;101017.19;7402392;19;1636;-76
2023/01/11 11:04:33;;;;;;;;;;;;;;;17.53;71.55;101027.00;7402891;19;1524;-76
2023/01/11 11:07:04;;;;;;;;;;;;;;;17.58;71.51;101008.78;7398441;19;1603;-76
2023/01/11 11:09:38;;;;;;;;;;;;;;;17.55;71.48;101009.00;7402740;19;1433;-76
2023/01/11 11:12:09;;;;;;;;;;;;;;;17.54;71.62;101004.66;7401804;19;1833;-75
2023/01/11 11:14:40;;;;;;;;;;;;;;;17.56;71.22;100997.38;7397302;19;1678;-77
2023/01/11 11:17:18;;;;;;;;;;;;;;;17.52;71.51;101014.63;7402317;19;1613;-76
2023/01/11 11:19:46;;;;;;;;;;;;;;;17.48;71.69;101005.97;7401755;19;1674;-77
2023/01/11 11:22:14;;;;;;;;;;;;;;;17.45;71.33;101004.41;7402024;19;1631;-77
2023/01/11 11:24:44;;;;;;;;;;;;;;;17.36;72.08;100990.91;7401645;19;1391;-77
2023/01/11 11:27:18;;;;;;;;;;;;;;;17.40;71.82;101011.06;7403493;19;1249;-77
2023/01/11 11:29:51;;;;;;;;;;;;;;;17.48;71.55;101003.31;7401564;19;1694;-77
2023/01/11 11:32:25;;;;;;;;;;;;;;;17.42;71.66;100998.44;7399836;19;1844;-77
2023/01/11 11:34:54;;;;;;;;;;;;;;;17.32;71.71;101019.69;7401637;19;1419;-77
2023/01/11 11:37:24;;;;;;;;;;;;;;;17.35;71.86;101024.81;7401150;19;1579;-77
2023/01/11 11:39:53;;;;;;;;;;;;;;;17.42;71.36;101015.31;7401269;19;1674;-77
2023/01/11 11:42:23;;;;;;;;;;;;;;;17.39;71.64;101022.72;7401951;19;1101;-77
2023/01/11 11:45:05;;;;;;;;;;;;;;;17.36;71.74;101018.47;7396437;19;1239;-77
2023/01/11 11:47:37;;;;;;;;;;;;;;;17.37;71.99;101009.50;7401427;19;1429;-77
2023/01/11 11:50:23;;;;;;;;;;;;;;;17.42;71.54;101018.00;7400951;19;1382;-77
2023/01/11 11:52:53;;;;;;;;;;;;;;;17.39;71.77;101004.88;7400443;19;1868;-77
2023/01/11 11:55:24;;;;;;;;;;;;;;;17.36;71.73;101015.81;7402004;19;1466;-77
2023/01/11 11:57:52;;;;;;;;;;;;;;;17.27;71.79;101011.19;7403060;19;1188;-77
2023/01/11 12:00:24;;;;;;;;;;;;;;;17.28;71.81;101007.53;7400759;19;1805;-77
2023/01/11 12:02:57;;;;;;;;;;;;;;;17.32;71.75;101035.72;7400133;19;1734;-77
2023/01/11 12:05:26;;;;;;;;;;;;;;;17.24;72.15;101017.59;7402487;19;1820;-77
2023/01/11 12:07:55;;;;;;;;;;;;;;;17.21;72.06;101025.00;7401228;19;1337;-77
2023/01/11 12:10:25;;;;;;;;;;;;;;;17.29;72.26;101022.59;7402440;19;1603;-77
2023/01/11 12:12:54;;;;;;;;;;;;;;;17.27;71.87;101020.03;7399745;19;1857;-77
2023/01/11 12:15:25;;;;;;;;;;;;;;;17.28;71.92;101015.53;7400426;19;1539;-77
2023/01/11 12:17:56;;;;;;;;;;;;;;;17.24;71.83;101020.28;7402425;19;1777;-77
2023/01/11 12:20:43;;;;;;;;;;;;;;;17.22;72.19;101019.53;7401838;19;1778;-77
2023/01/11 12:23:20;;;;;;;;;;;;;;;17.32;71.56;101024.19;7400228;19;1821;-77
2023/01/11 12:26:03;;;;;;;;;;;;;;;18.21;69.01;101014.53;7398715;19;1617;-77
2023/01/11 12:28:40;;;;;;;;;;;;;;;18.69;67.41;101017.66;7399864;19;1721;-77
2023/01/11 12:31:13;;;;;;;;;;;;;;;19.42;64.90;100985.63;7400228;19;1879;-77
2023/01/11 12:33:50;;;;;;;;;;;;;;;19.45;65.02;100997.94;7399927;19;1748;-77
2023/01/11 12:36:24;;;;;;;;;;;;;;;19.61;64.41;100997.44;7400458;19;1736;-77
2023/01/11 12:39:01;;;;;;;;;;;;;;;19.63;64.25;101006.19;7400472;19;1525;-77
2023/01/11 12:41:46;;;;;;;;;;;;;;;19.65;64.38;101009.59;7399020;19;1490;-77
2023/01/11 12:44:24;;;;;;;;;;;;;;;19.64;64.68;101013.28;7397874;19;1620;-77
2023/01/11 12:47:03;;;;;;;;;;;;;;;19.60;64.47;101011.84;7398824;19;1457;-77
2023/01/11 12:49:40;;;;;;;;;;;;;;;19.58;64.85;101019.19;7399901;19;1450;-77
2023/01/11 12:52:22;;;;;;;;;;;;;;;19.53;64.98;101018.72;7397136;19;1843;-77
2023/01/11 12:55:00;;;;;;;;;;;;;;;19.63;64.60;101014.25;7397426;19;1458;-77
2023/01/11 12:57:33;;;;;;;;;;;;;;;19.49;65.08;101020.81;7402749;19;1409;-77
2023/01/11 13:00:17;;;;;;;;;;;;;;;19.42;65.16;101015.13;7403096;19;1469;-77
2023/01/11 13:03:06;;;;;;;;;;;;;;;19.32;65.11;101029.44;7404643;19;1494;-77
2023/01/11 13:05:42;;;;;;;;;;;;;;;18.84;66.70;101022.75;7406574;19;1416;-77
2023/01/11 13:08:14;;;;;;;;;;;;;;;18.35;68.04;101024.09;7406074;19;1472;-77
2023/01/11 13:10:48;;;;;;;;;;;;;;;17.98;69.68;101019.88;7403134;19;1477;-82
2023/01/11 13:13:20;;;;;;;;;;;;;;;17.77;70.42;101032.28;7404213;19;2006;-82
2023/01/11 13:15:56;;;;;;;;;;;;;;;17.61;70.58;101029.94;7404142;19;1475;-78
2023/01/11 13:18:29;;;;;;;;;;;;;;;17.57;70.96;101049.88;7399007;19;1634;-78
2023/01/11 13:21:02;;;;;;;;;;;;;;;17.52;70.94;101044.03;7403257;19;979;-78
2023/01/11 13:23:34;;;;;;;;;;;;;;;17.41;71.05;101051.06;7404112;19;991;-78
2023/01/11 13:26:07;;;;;;;;;;;;;;;17.34;71.32;101052.50;7404460;19;1405;-78
2023/01/11 13:28:37;;;;;;;;;;;;;;;17.29;71.42;101038.66;7404396;19;1405;-78
2023/01/11 13:31:07;;;;;;;;;;;;;;;17.23;71.68;101064.00;7403911;19;1565;-78
2023/01/11 13:33:38;;;;;;;;;;;;;;;17.17;70.63;101063.59;7403717;19;1845;-78